createdAt,value
2019-03-15T00:00:49.441Z,14.57
2019-03-15T00:03:19.815Z,15.53
2019-03-15T00:05:50.242Z,14.60
2019-03-15T00:08:20.635Z,14.50
2019-03-15T00:10:54.172Z,13.10
2019-03-15T00:13:24.597Z,12.70
2019-03-15T00:15:55.088Z,15.23
2019-03-15T00:18:31.488Z,12.73
2019-03-15T00:21:01.841Z,11.77
2019-03-15T00:23:32.285Z,11.30
2019-03-15T00:26:05.669Z,11.93
2019-03-15T00:28:36.087Z,12.20
2019-03-15T00:31:06.472Z,11.70
2019-03-15T00:33:41.510Z,12.90
2019-03-15T00:36:11.921Z,13.27
2019-03-15T00:38:45.375Z,13.17
2019-03-15T00:41:15.807Z,14.20
2019-03-15T00:43:49.246Z,15.20
2019-03-15T00:46:18.184Z,15.43
2019-03-15T00:48:48.594Z,15.73
2019-03-15T00:51:19.008Z,14.73
2019-03-15T00:53:49.409Z,15.90
2019-03-15T00:56:19.770Z,17.40
2019-03-15T00:58:53.215Z,13.67
2019-03-15T01:01:23.632Z,13.80
2019-03-15T01:03:54.040Z,13.30
2019-03-15T01:06:24.480Z,13.33
2019-03-15T01:08:54.979Z,13.17
2019-03-15T01:11:26.904Z,12.00
2019-03-15T01:13:57.303Z,12.90
2019-03-15T01:16:27.682Z,12.70
2019-03-15T01:18:58.106Z,15.40
2019-03-15T01:21:28.521Z,13.77
2019-03-15T01:23:58.974Z,13.30
2019-03-15T01:26:32.403Z,12.77
2019-03-15T01:29:02.842Z,13.10
2019-03-15T01:31:33.321Z,14.23
2019-03-15T01:34:03.739Z,14.10
2019-03-15T01:36:37.764Z,12.93
2019-03-15T01:39:10.081Z,12.97
2019-03-15T01:41:40.546Z,12.40
2019-03-15T01:44:10.955Z,12.53
2019-03-15T01:46:44.443Z,12.57
2019-03-15T01:49:14.839Z,12.67
2019-03-15T01:51:45.279Z,13.10
2019-03-15T01:54:15.684Z,12.40
2019-03-15T01:59:14.066Z,16.35
2019-03-15T02:01:44.465Z,13.47
2019-03-15T02:04:14.917Z,12.63
2019-03-15T02:06:45.343Z,14.33
2019-03-15T02:09:15.745Z,13.53
2019-03-15T02:11:47.873Z,13.77
2019-03-15T02:14:18.232Z,13.73
2019-03-15T02:16:49.010Z,13.10
2019-03-15T02:19:19.392Z,14.53
2019-03-15T02:21:49.911Z,14.67
2019-03-15T02:24:20.336Z,14.17
2019-03-15T02:26:53.755Z,15.83
2019-03-15T02:29:25.712Z,15.50
2019-03-15T02:31:58.013Z,17.23
2019-03-15T02:34:28.416Z,17.03
2019-03-15T02:36:58.898Z,17.97
2019-03-15T02:39:29.350Z,17.33
2019-03-15T02:41:59.738Z,18.67
2019-03-15T02:44:30.180Z,19.27
2019-03-15T02:47:00.608Z,19.70
2019-03-15T02:49:31.097Z,18.10
2019-03-15T02:52:01.474Z,17.13
2019-03-15T02:54:31.920Z,16.00
2019-03-15T02:57:02.310Z,16.00
2019-03-15T02:59:34.332Z,15.10
2019-03-15T03:02:04.759Z,14.63
2019-03-15T03:04:35.233Z,14.90
2019-03-15T03:07:05.645Z,14.87
2019-03-15T03:09:36.037Z,14.80
2019-03-15T03:12:06.465Z,14.23
2019-03-15T03:14:38.428Z,13.77
2019-03-15T03:17:10.178Z,13.70
2019-03-15T03:19:42.284Z,13.57
2019-03-15T03:22:12.684Z,13.97
2019-03-15T03:24:43.076Z,13.37
2019-03-15T03:27:13.491Z,18.45
2019-03-15T03:29:43.861Z,17.73
2019-03-15T03:32:14.529Z,15.13
2019-03-15T03:34:45.080Z,15.17
2019-03-15T03:37:16.995Z,14.77
2019-03-15T03:39:50.132Z,14.90
2019-03-15T03:42:20.536Z,15.63
2019-03-15T03:44:51.441Z,15.10
2019-03-15T03:47:22.224Z,14.57
2019-03-15T03:49:54.743Z,14.63
2019-03-15T03:52:25.152Z,15.63
2019-03-15T03:54:55.564Z,14.83
2019-03-15T03:57:27.606Z,14.07
2019-03-15T03:59:58.058Z,14.93
2019-03-15T04:02:28.733Z,14.73
2019-03-15T04:04:59.125Z,15.07
2019-03-15T04:07:32.843Z,14.57
2019-03-15T04:10:05.646Z,14.80
2019-03-15T04:12:36.275Z,14.83
2019-03-15T04:15:10.865Z,14.20
2019-03-15T04:17:44.240Z,14.70
2019-03-15T04:20:16.322Z,15.10
2019-03-15T04:22:49.478Z,14.53
2019-03-15T04:25:19.997Z,13.77
2019-03-15T04:27:53.704Z,14.70
2019-03-15T04:30:24.475Z,14.07
2019-03-15T04:32:55.398Z,15.73
2019-03-15T04:35:29.477Z,14.77
2019-03-15T04:37:59.864Z,14.20
2019-03-15T04:40:30.282Z,14.97
2019-03-15T04:43:01.111Z,16.00
2019-03-15T04:45:31.469Z,14.20
2019-03-15T04:48:02.694Z,14.63
2019-03-15T04:50:37.636Z,13.33
2019-03-15T04:53:08.073Z,14.83
2019-03-15T04:55:39.981Z,15.00
2019-03-15T04:58:14.932Z,14.57
2019-03-15T05:00:50.201Z,14.17
2019-03-15T05:03:21.373Z,13.23
2019-03-15T05:06:02.382Z,13.00
2019-03-15T05:08:24.063Z,14.07
2019-03-15T05:10:59.344Z,13.10
2019-03-15T05:13:29.579Z,13.40
2019-03-15T05:16:00.010Z,13.70
2019-03-15T05:18:32.072Z,12.17
2019-03-15T05:21:09.683Z,13.17
2019-03-15T05:23:40.654Z,13.43
2019-03-15T05:26:16.710Z,14.70
2019-03-15T05:28:52.703Z,14.07
2019-03-15T05:31:23.096Z,13.00
2019-03-15T05:33:56.165Z,13.53
2019-03-15T05:36:25.679Z,13.50
2019-03-15T05:38:57.719Z,14.43
2019-03-15T05:41:28.187Z,13.60
2019-03-15T05:43:58.695Z,13.50
2019-03-15T05:46:33.338Z,12.87
2019-03-15T05:49:03.843Z,13.23
2019-03-15T05:51:34.400Z,13.60
2019-03-15T05:54:04.854Z,13.83
2019-03-15T05:56:35.388Z,13.90
2019-03-15T05:59:05.887Z,15.47
2019-03-15T06:01:36.317Z,15.37
2019-03-15T06:04:06.777Z,16.13
2019-03-15T06:06:37.284Z,18.97
2019-03-15T06:09:07.709Z,17.30
2019-03-15T06:11:38.172Z,19.10
2019-03-15T06:14:10.027Z,19.50
2019-03-15T06:16:40.471Z,16.97
2019-03-15T06:19:10.921Z,17.27
2019-03-15T06:21:41.356Z,17.60
2019-03-15T06:24:11.854Z,17.83
2019-03-15T06:26:42.390Z,18.27
2019-03-15T06:29:12.792Z,18.77
2019-03-15T06:31:45.456Z,16.93
2019-03-15T06:36:47.652Z,19.20
2019-03-15T06:39:18.056Z,15.77
2019-03-15T06:41:51.422Z,14.37
2019-03-15T06:44:21.915Z,9.50
2019-03-15T06:46:54.029Z,9.83
2019-03-15T06:49:29.058Z,9.80
2019-03-15T06:51:59.730Z,9.63
2019-03-15T06:54:30.618Z,9.93
2019-03-15T06:57:01.008Z,9.63
2019-03-15T06:59:31.468Z,9.47
2019-03-15T07:02:02.003Z,9.20
2019-03-15T07:04:32.480Z,13.00
2019-03-15T07:07:02.933Z,10.87
2019-03-15T07:09:33.383Z,12.33
2019-03-15T07:12:09.730Z,11.53
2019-03-15T07:14:40.769Z,10.03
2019-03-15T07:17:11.175Z,11.53
2019-03-15T07:19:42.299Z,12.53
2019-03-15T07:22:14.672Z,10.70
2019-03-15T07:24:48.106Z,10.13
2019-03-15T07:27:18.534Z,11.50
2019-03-15T07:29:49.049Z,11.80
2019-03-15T07:32:19.462Z,10.50
2019-03-15T07:34:51.050Z,10.07
2019-03-15T07:37:21.962Z,11.47
2019-03-15T07:39:52.471Z,11.07
2019-03-15T07:42:22.844Z,9.73
2019-03-15T07:44:54.846Z,12.43
2019-03-15T07:47:25.255Z,10.53
2019-03-15T07:49:55.680Z,9.53
2019-03-15T07:52:26.166Z,9.47
2019-03-15T07:54:58.226Z,10.00
2019-03-15T07:57:28.634Z,8.83
2019-03-15T08:00:02.087Z,9.00
2019-03-15T08:02:32.589Z,9.23
2019-03-15T08:05:03.051Z,10.10
2019-03-15T08:07:44.201Z,12.53
2019-03-15T08:10:12.132Z,12.93
2019-03-15T08:12:42.560Z,12.27
2019-03-15T08:15:13.980Z,13.00
2019-03-15T08:17:44.464Z,14.20
2019-03-15T08:20:15.608Z,14.97
2019-03-15T08:22:48.033Z,10.70
2019-03-15T08:25:19.329Z,10.93
2019-03-15T08:27:49.834Z,10.93
2019-03-15T08:30:20.293Z,10.50
2019-03-15T08:32:53.999Z,11.50
2019-03-15T08:35:27.366Z,12.07
2019-03-15T08:37:57.836Z,11.83
2019-03-15T08:40:32.941Z,11.57
2019-03-15T08:43:05.836Z,11.90
2019-03-15T08:45:36.389Z,11.23
2019-03-15T08:48:07.202Z,12.37
2019-03-15T08:50:40.610Z,10.97
2019-03-15T08:53:11.145Z,11.87
2019-03-15T08:55:41.593Z,10.80
2019-03-15T08:58:15.747Z,12.10
2019-03-15T09:00:44.141Z,12.10
2019-03-15T09:03:27.251Z,10.60
2019-03-15T09:05:46.919Z,13.45
2019-03-15T09:08:17.457Z,12.37
2019-03-15T09:10:47.877Z,11.37
2019-03-15T09:13:18.466Z,10.77
2019-03-15T09:15:48.903Z,12.07
2019-03-15T09:18:19.437Z,11.80
2019-03-15T09:20:50.372Z,13.23
2019-03-15T09:23:21.049Z,17.53
2019-03-15T09:25:51.655Z,12.57
2019-03-15T09:28:22.324Z,14.30
2019-03-15T09:30:52.882Z,14.13
2019-03-15T09:33:23.421Z,15.98
2019-03-15T09:35:57.394Z,14.17
2019-03-15T09:38:28.399Z,14.23
2019-03-15T09:40:58.923Z,13.00
2019-03-15T09:43:34.012Z,15.00
2019-03-15T09:46:07.009Z,12.60
2019-03-15T09:48:37.588Z,12.87
2019-03-15T09:51:13.885Z,16.48
2019-03-15T09:53:44.708Z,15.13
2019-03-15T09:56:17.721Z,13.00
2019-03-15T09:58:48.353Z,13.10
2019-03-15T10:01:34.702Z,12.97
2019-03-15T10:04:00.845Z,15.10
2019-03-15T10:06:40.133Z,14.10
2019-03-15T10:09:16.988Z,14.17
2019-03-15T10:11:51.887Z,12.30
2019-03-15T10:14:22.959Z,13.37
2019-03-15T10:16:53.457Z,12.27
2019-03-15T10:19:24.075Z,12.67
2019-03-15T10:21:54.618Z,13.27
2019-03-15T10:24:30.909Z,13.73
2019-03-15T10:27:17.680Z,17.87
2019-03-15T10:29:48.670Z,13.33
2019-03-15T10:32:24.223Z,13.83
2019-03-15T10:34:58.085Z,13.67
2019-03-15T10:37:28.447Z,14.10
2019-03-15T10:39:58.883Z,16.33
2019-03-15T10:42:29.531Z,19.70
2019-03-15T10:44:59.914Z,14.20
2019-03-15T10:47:31.891Z,12.37
2019-03-15T10:50:02.431Z,13.67
2019-03-15T10:52:38.963Z,13.57
2019-03-15T12:09:07.126Z,12.90
2019-03-15T12:11:39.984Z,14.87
2019-03-15T12:14:13.407Z,14.47
2019-03-15T12:16:45.764Z,13.13
2019-03-15T12:19:16.453Z,13.50
2019-03-15T12:21:49.418Z,13.03
2019-03-15T12:24:26.419Z,13.40
2019-03-15T12:27:03.702Z,14.60
2019-03-15T12:29:38.440Z,14.17
2019-03-15T12:32:14.636Z,14.53
2019-03-15T14:30:26.425Z,20.27
2019-03-15T14:33:02.042Z,21.93
2019-03-15T14:35:32.628Z,23.87
2019-03-15T14:38:04.908Z,22.83
2019-03-15T14:40:41.181Z,25.73
2019-03-15T14:43:14.217Z,23.07
2019-03-15T14:45:47.077Z,24.40
2019-03-15T14:48:19.021Z,24.80
2019-03-15T14:50:49.542Z,25.13
2019-03-15T14:53:20.112Z,23.30
2019-03-15T14:55:50.600Z,21.63
2019-03-15T14:58:21.103Z,23.83
2019-03-15T15:00:51.768Z,24.60
2019-03-15T15:03:22.251Z,29.02
2019-03-15T15:05:52.715Z,25.00
2019-03-15T15:08:23.291Z,24.80
2019-03-15T15:10:55.505Z,23.00
2019-03-15T15:13:26.149Z,21.87
2019-03-15T15:15:56.565Z,23.03
2019-03-15T15:18:27.237Z,26.82
2019-03-15T15:21:00.761Z,23.40
2019-03-15T15:23:34.818Z,25.67
2019-03-15T15:26:06.759Z,31.82
2019-03-15T15:28:58.633Z,27.23
2019-03-15T15:31:34.807Z,24.33
2019-03-15T15:34:08.377Z,24.50
2019-03-15T15:36:41.301Z,29.43
2019-03-15T15:40:04.604Z,29.75
2019-03-15T15:42:35.031Z,22.57
2019-03-15T15:45:07.662Z,31.35
2019-03-15T15:47:38.080Z,28.50
2019-03-15T15:50:14.070Z,28.02
2019-03-15T15:52:44.757Z,26.33
2019-03-15T15:55:16.577Z,30.40
2019-03-15T15:57:47.262Z,27.13
2019-03-15T16:00:18.387Z,25.40
2019-03-15T16:02:48.837Z,26.00
2019-03-15T16:05:19.323Z,23.97
2019-03-15T16:07:49.779Z,24.47
2019-03-15T16:10:20.259Z,26.27
2019-03-15T16:12:52.409Z,29.83
2019-03-15T16:15:22.898Z,28.93
2019-03-15T16:17:56.198Z,35.47
2019-03-15T16:20:34.801Z,45.63
2019-03-15T16:23:02.443Z,39.83
2019-03-15T16:26:02.242Z,46.88
2019-03-15T16:28:36.117Z,36.87
2019-03-15T16:31:05.632Z,32.13
2019-03-15T16:33:36.044Z,31.40
2019-03-15T16:36:06.469Z,32.40
2019-03-15T16:38:37.088Z,34.53
2019-03-15T16:41:10.765Z,33.63
2019-03-15T16:50:06.072Z,31.47
2019-03-15T16:52:40.377Z,36.63
2019-03-15T16:55:14.776Z,41.73
2019-03-15T16:57:45.390Z,34.63
2019-03-15T17:00:32.986Z,31.00
2019-03-15T17:03:05.280Z,32.23
2019-03-15T17:05:35.873Z,35.47
2019-03-15T17:08:06.634Z,35.43
2019-03-15T17:10:37.121Z,30.53
2019-03-15T17:13:07.561Z,32.70
2019-03-15T17:15:40.864Z,31.93
2019-03-15T17:18:12.959Z,29.43
2019-03-15T17:20:47.558Z,30.43
2019-03-15T17:30:10.846Z,31.37
2019-03-15T17:33:22.345Z,31.63
2019-03-15T17:39:03.649Z,31.03
2019-03-15T17:41:34.903Z,32.20
2019-03-15T17:44:08.624Z,30.00
2019-03-15T17:46:39.269Z,31.67
2019-03-15T17:49:11.470Z,31.47
2019-03-15T17:51:47.967Z,29.87
2019-03-15T17:54:18.733Z,30.27
2019-03-15T17:56:58.196Z,32.07
2019-03-15T18:00:09.539Z,33.07
2019-03-15T18:02:42.141Z,32.87
2019-03-15T18:05:12.667Z,38.73
2019-03-15T18:07:47.645Z,39.20
2019-03-15T18:10:23.623Z,42.15
2019-03-15T18:12:53.824Z,36.83
2019-03-15T18:15:26.077Z,39.97
2019-03-15T18:21:08.156Z,32.93
2019-03-15T18:23:42.195Z,35.83
2019-03-15T18:26:16.696Z,32.57
2019-03-15T18:28:50.271Z,31.63
2019-03-15T18:31:23.376Z,33.33
2019-03-15T18:33:54.136Z,32.27
2019-03-15T18:39:33.773Z,30.13
2019-03-15T18:42:16.719Z,30.70
2019-03-15T18:44:47.426Z,32.00
2019-03-15T18:47:17.955Z,35.20
2019-03-15T18:49:48.477Z,33.97
2019-03-15T18:56:11.512Z,36.20
2019-03-15T18:58:43.236Z,35.07
2019-03-15T19:01:13.995Z,36.17
2019-03-15T19:03:46.131Z,36.77
2019-03-15T19:06:20.387Z,35.80
2019-03-15T19:12:21.629Z,38.23
2019-03-15T19:14:54.824Z,36.13
2019-03-15T19:17:26.944Z,36.83
2019-03-15T19:20:01.001Z,38.97
2019-03-15T19:22:33.566Z,39.70
2019-03-15T19:25:04.424Z,40.13
2019-03-15T19:27:41.297Z,43.50
2019-03-15T19:30:21.291Z,57.37
2019-03-15T19:32:51.897Z,43.73
2019-03-15T19:35:23.925Z,39.07
2019-03-15T19:37:55.825Z,40.63
2019-03-15T19:40:31.688Z,39.10
2019-03-15T19:43:03.246Z,38.50
2019-03-15T19:45:39.251Z,40.70
2019-03-15T19:48:12.822Z,40.60
2019-03-15T19:50:44.866Z,36.90
2019-03-15T19:53:15.370Z,39.00
2019-03-15T19:55:45.745Z,45.60
2019-03-15T19:58:16.475Z,42.17
2019-03-15T20:00:48.074Z,42.70
2019-03-15T20:03:18.599Z,53.60
2019-03-15T20:05:48.939Z,51.97
2019-03-15T20:08:19.668Z,51.27
2019-03-15T20:10:50.244Z,50.95
2019-03-15T20:13:23.300Z,62.93
2019-03-15T20:15:53.835Z,54.10
2019-03-15T20:18:25.252Z,55.70
2019-03-15T20:20:55.912Z,57.23
2019-03-15T20:23:29.130Z,52.30
2019-03-15T20:25:59.670Z,53.13
2019-03-15T20:28:30.335Z,54.80
2019-03-15T20:31:02.182Z,50.90
2019-03-15T20:33:35.381Z,48.73
2019-03-15T20:36:05.855Z,49.67
2019-03-15T20:38:37.625Z,47.63
2019-03-15T20:41:10.559Z,47.80
2019-03-15T20:43:44.374Z,45.83
2019-03-15T20:49:18.125Z,58.00
2019-03-15T20:51:51.203Z,52.07
2019-03-15T20:54:29.085Z,49.40
2019-03-15T20:56:59.427Z,51.97
2019-03-15T20:59:29.904Z,53.23
2019-03-15T21:02:08.865Z,53.23
2019-03-15T21:04:34.897Z,51.83
2019-03-15T21:07:05.384Z,52.33
2019-03-15T21:09:35.986Z,54.20
2019-03-15T21:12:06.481Z,52.47
2019-03-15T21:14:36.964Z,52.00
2019-03-15T21:17:07.421Z,52.27
2019-03-15T21:19:37.841Z,51.53
2019-03-15T21:22:10.640Z,51.63
2019-03-15T21:24:41.102Z,49.10
2019-03-15T21:27:11.566Z,48.10
2019-03-15T21:29:41.992Z,48.37
2019-03-15T21:32:12.461Z,48.07
2019-03-15T21:34:43.765Z,60.23
2019-03-15T21:37:14.309Z,54.37
2019-03-15T21:39:45.535Z,53.73
2019-03-15T21:42:16.840Z,56.77
2019-03-15T21:44:47.294Z,56.63
2019-03-15T21:47:17.757Z,59.73
2019-03-15T21:49:48.334Z,58.27
2019-03-15T21:52:18.827Z,58.97
2019-03-15T21:54:49.298Z,58.43
2019-03-15T21:57:19.743Z,61.50
2019-03-15T21:59:50.220Z,56.93
2019-03-15T22:02:20.639Z,55.10
2019-03-15T22:04:51.265Z,55.10
2019-03-15T22:07:21.691Z,60.67
2019-03-15T22:09:56.636Z,63.93
2019-03-15T22:12:27.021Z,59.67
2019-03-15T22:14:57.490Z,58.03
2019-03-15T22:17:27.945Z,60.80
2019-03-15T22:19:58.498Z,64.00
2019-03-15T22:22:28.908Z,60.93
2019-03-15T22:24:59.456Z,61.17
2019-03-15T22:27:29.859Z,55.37
2019-03-15T22:30:00.412Z,57.87
2019-03-15T22:32:30.862Z,60.87
2019-03-15T22:35:01.341Z,59.70
2019-03-15T22:37:31.789Z,62.80
2019-03-15T22:40:02.274Z,59.23
2019-03-15T22:42:32.814Z,59.60
2019-03-15T22:45:03.672Z,59.57
2019-03-15T22:47:35.292Z,58.23
2019-03-15T22:50:07.669Z,63.53
2019-03-15T22:52:38.246Z,69.53
2019-03-15T22:55:10.143Z,73.67
2019-03-15T22:57:43.166Z,72.53
2019-03-15T23:00:18.397Z,71.03
2019-03-15T23:02:48.985Z,69.97
2019-03-15T23:05:19.952Z,69.20
2019-03-15T23:07:52.473Z,68.87
2019-03-15T23:10:30.506Z,83.57
2019-03-15T23:13:00.968Z,74.37
2019-03-15T23:15:32.876Z,71.60
2019-03-15T23:18:06.075Z,63.67
2019-03-15T23:20:36.552Z,62.60
2019-03-15T23:23:08.752Z,56.37
2019-03-15T23:25:39.238Z,57.03
2019-03-15T23:28:09.821Z,58.47
2019-03-15T23:30:40.226Z,56.93
2019-03-15T23:33:10.735Z,52.60
2019-03-15T23:35:53.370Z,52.33
2019-03-15T23:38:13.887Z,53.03
2019-03-15T23:40:44.340Z,52.93
2019-03-15T23:43:19.918Z,53.10
2019-03-15T23:45:51.448Z,53.00
2019-03-15T23:48:24.008Z,56.17
2019-03-15T23:50:54.462Z,55.50
2019-03-15T23:53:25.272Z,53.07
2019-03-15T23:55:55.755Z,52.63
2019-03-15T23:58:27.046Z,59.17
